createdAt,value
2022-10-15T00:01:52.650Z,17.94
2022-10-15T00:06:54.549Z,17.92
2022-10-15T00:11:56.391Z,17.86
2022-10-15T00:16:58.261Z,17.86
2022-10-15T00:27:06.980Z,17.79
2022-10-15T00:32:09.304Z,17.85
2022-10-15T00:37:14.013Z,17.84
2022-10-15T00:42:16.970Z,17.79
2022-10-15T00:47:23.780Z,17.74
2022-10-15T00:52:47.810Z,17.77
2022-10-15T00:57:50.746Z,17.72
2022-10-15T01:02:52.566Z,17.75
2022-10-15T01:07:54.714Z,17.76
2022-10-15T01:13:20.203Z,17.74
2022-10-15T01:18:53.336Z,17.77
2022-10-15T01:24:06.973Z,17.80
2022-10-15T01:29:30.357Z,17.79
2022-10-15T01:34:47.059Z,17.63
2022-10-15T01:39:57.545Z,17.59
2022-10-15T01:45:07.769Z,17.50
2022-10-15T01:50:31.087Z,17.48
2022-10-15T01:55:36.827Z,17.47
2022-10-15T02:00:41.634Z,17.51
2022-10-15T02:06:02.928Z,17.53
2022-10-15T02:11:09.897Z,17.57
2022-10-15T02:16:21.255Z,17.59
2022-10-15T02:21:32.890Z,17.56
2022-10-15T02:26:37.577Z,17.68
2022-10-15T02:31:43.796Z,17.68
2022-10-15T02:36:47.060Z,17.69
2022-10-15T02:41:49.227Z,17.74
2022-10-15T02:46:51.241Z,17.76
2022-10-15T02:51:54.851Z,17.78
2022-10-15T02:56:56.754Z,17.74
2022-10-15T03:01:59.414Z,17.75
2022-10-15T03:07:02.466Z,17.74
2022-10-15T03:12:06.412Z,17.74
2022-10-15T03:17:08.768Z,17.70
2022-10-15T03:22:10.978Z,17.68
2022-10-15T03:27:24.413Z,17.67
2022-10-15T03:32:26.876Z,17.63
2022-10-15T03:37:29.033Z,17.56
2022-10-15T03:42:31.529Z,17.60
2022-10-15T03:47:34.798Z,17.66
2022-10-15T03:52:37.697Z,17.73
2022-10-15T03:57:39.992Z,17.80
2022-10-15T04:02:42.322Z,17.79
2022-10-15T04:07:54.877Z,17.85
2022-10-15T04:12:58.301Z,17.88
2022-10-15T04:18:01.564Z,17.88
2022-10-15T04:23:04.680Z,17.85
2022-10-15T04:28:07.223Z,17.84
2022-10-15T04:33:11.795Z,17.85
2022-10-15T04:38:14.715Z,17.84
2022-10-15T04:43:34.145Z,17.77
2022-10-15T04:48:42.999Z,17.74
2022-10-15T04:53:47.914Z,17.69
2022-10-15T04:58:51.235Z,17.62
2022-10-15T05:03:53.226Z,17.44
2022-10-15T05:08:55.132Z,17.34
2022-10-15T05:14:04.080Z,17.32
2022-10-15T05:19:08.843Z,17.28
2022-10-15T05:24:13.038Z,17.25
2022-10-15T05:29:50.114Z,17.29
2022-10-15T05:34:52.003Z,17.30
2022-10-15T05:39:54.036Z,17.30
2022-10-15T05:44:56.094Z,17.33
2022-10-15T05:49:57.913Z,17.35
2022-10-15T05:55:05.084Z,17.36
2022-10-15T06:00:08.612Z,17.38
2022-10-15T06:05:16.258Z,17.40
2022-10-15T06:10:18.481Z,17.35
2022-10-15T06:15:20.377Z,17.35
2022-10-15T06:20:22.257Z,17.33
2022-10-15T06:25:24.178Z,17.33
2022-10-15T06:30:25.965Z,17.36
2022-10-15T06:35:30.559Z,17.39
2022-10-15T06:40:32.741Z,17.37
2022-10-15T06:45:36.695Z,17.39
2022-10-15T06:50:42.462Z,17.44
2022-10-15T06:55:44.356Z,17.50
2022-10-15T07:00:46.172Z,17.54
2022-10-15T07:05:48.036Z,17.57
2022-10-15T07:10:49.853Z,17.63
2022-10-15T07:15:54.198Z,17.70
2022-10-15T07:20:57.250Z,17.79
2022-10-15T07:26:00.694Z,17.85
2022-10-15T07:31:04.594Z,17.92
2022-10-15T07:36:08.833Z,17.96
2022-10-15T07:41:11.078Z,18.05
2022-10-15T07:46:17.195Z,18.10
2022-10-15T07:51:19.134Z,18.18
2022-10-15T07:56:20.976Z,18.28
2022-10-15T08:01:22.835Z,18.34
2022-10-15T08:06:24.755Z,18.38
2022-10-15T08:11:27.145Z,18.45
2022-10-15T08:16:29.232Z,18.53
2022-10-15T08:21:33.515Z,18.59
2022-10-15T08:26:36.664Z,18.66
2022-10-15T08:31:39.615Z,18.71
2022-10-15T08:36:41.375Z,18.79
2022-10-15T08:41:48.866Z,18.88
2022-10-15T08:46:55.243Z,18.98
2022-10-15T08:52:07.903Z,19.09
2022-10-15T08:57:18.767Z,19.15
2022-10-15T09:02:34.888Z,19.20
2022-10-15T09:07:45.131Z,19.31
2022-10-15T09:13:02.038Z,19.40
2022-10-15T09:18:04.859Z,19.40
2022-10-15T09:23:22.538Z,19.41
2022-10-15T09:28:29.937Z,19.39
2022-10-15T09:33:31.952Z,19.47
2022-10-15T09:38:50.180Z,19.56
2022-10-15T09:43:55.953Z,19.56
2022-10-15T09:49:11.790Z,19.65
2022-10-15T09:54:36.050Z,19.74
2022-10-15T09:59:37.932Z,19.75
2022-10-15T10:04:40.598Z,19.74
2022-10-15T10:09:55.708Z,19.89
2022-10-15T10:14:57.419Z,20.01
2022-10-15T10:20:14.888Z,20.24
2022-10-15T10:25:29.113Z,20.28
2022-10-15T10:30:37.435Z,20.44
2022-10-15T10:35:50.346Z,20.47
2022-10-15T10:41:00.549Z,20.35
2022-10-15T10:46:23.497Z,20.23
2022-10-15T10:51:27.861Z,20.08
2022-10-15T10:56:35.669Z,20.25
2022-10-15T11:01:37.569Z,20.20
2022-10-15T11:07:01.022Z,20.21
2022-10-15T11:12:20.918Z,20.23
2022-10-15T11:17:37.596Z,20.40
2022-10-15T11:23:13.351Z,20.51
2022-10-15T11:28:52.682Z,20.44
2022-10-15T11:34:03.495Z,20.34
2022-10-15T11:39:20.246Z,20.42
2022-10-15T11:44:48.536Z,20.48
2022-10-15T11:49:59.421Z,20.47
2022-10-15T11:55:50.173Z,20.60
2022-10-15T12:00:58.999Z,21.02
2022-10-15T12:06:11.440Z,21.25
2022-10-15T12:11:44.602Z,21.09
2022-10-15T12:22:39.798Z,21.90
2022-10-15T12:27:42.337Z,22.13
2022-10-15T12:32:47.811Z,21.88
2022-10-15T12:37:50.965Z,21.77
2022-10-15T12:43:01.745Z,21.38
2022-10-15T12:48:05.458Z,21.28
2022-10-15T12:53:26.559Z,21.13
2022-10-15T12:58:34.924Z,21.60
2022-10-15T13:03:58.856Z,21.41
2022-10-15T13:09:06.831Z,21.72
2022-10-15T13:14:27.948Z,21.86
2022-10-15T13:19:41.092Z,22.22
2022-10-15T13:24:45.691Z,22.41
2022-10-15T13:29:59.741Z,22.62
2022-10-15T13:35:10.773Z,23.37
2022-10-15T13:40:25.598Z,26.69
2022-10-15T13:45:27.622Z,26.95
2022-10-15T13:50:33.049Z,25.47
2022-10-15T13:55:39.094Z,24.94
2022-10-15T14:00:41.179Z,24.97
2022-10-15T14:05:45.980Z,24.79
2022-10-15T14:10:49.767Z,24.84
2022-10-15T14:15:54.378Z,26.44
2022-10-15T14:20:57.076Z,25.71
2022-10-15T14:26:02.331Z,24.64
2022-10-15T14:31:04.842Z,23.99
2022-10-15T14:36:41.341Z,23.68
2022-10-15T14:42:04.627Z,23.30
2022-10-15T14:47:06.692Z,23.04
2022-10-15T14:52:15.298Z,22.73
2022-10-15T14:57:27.585Z,22.57
2022-10-15T15:02:30.321Z,22.39
2022-10-15T15:07:32.227Z,22.35
2022-10-15T15:12:35.976Z,22.24
2022-10-15T15:17:38.242Z,22.22
2022-10-15T15:22:41.988Z,22.12
2022-10-15T15:27:44.142Z,22.02
2022-10-15T15:32:46.938Z,21.88
2022-10-15T15:37:48.790Z,21.81
2022-10-15T15:42:50.863Z,21.70
2022-10-15T15:47:53.576Z,21.54
2022-10-15T15:52:55.759Z,21.29
2022-10-15T15:57:57.607Z,21.23
2022-10-15T16:02:59.404Z,21.06
2022-10-15T16:08:01.308Z,20.98
2022-10-15T16:13:03.414Z,20.95
2022-10-15T16:18:05.327Z,20.87
2022-10-15T16:23:07.109Z,20.78
2022-10-15T16:28:08.935Z,20.80
2022-10-15T16:33:10.900Z,20.77
2022-10-15T16:38:12.825Z,20.82
2022-10-15T16:43:14.728Z,20.75
2022-10-15T16:48:17.256Z,20.60
2022-10-15T16:53:19.532Z,20.53
2022-10-15T16:58:21.630Z,20.41
2022-10-15T17:03:23.854Z,20.28
2022-10-15T17:08:46.378Z,20.24
2022-10-15T17:13:50.696Z,20.13
2022-10-15T17:18:54.168Z,20.10
2022-10-15T17:23:58.697Z,20.01
2022-10-15T17:29:01.101Z,19.96
2022-10-15T17:34:06.402Z,19.95
2022-10-15T17:39:09.584Z,19.87
2022-10-15T17:44:12.239Z,19.83
2022-10-15T17:49:18.419Z,19.75
2022-10-15T17:54:20.348Z,19.69
2022-10-15T17:59:22.125Z,19.70
2022-10-15T18:04:24.489Z,19.78
2022-10-15T18:09:28.296Z,19.79
2022-10-15T18:14:32.189Z,19.73
2022-10-15T18:19:34.283Z,19.72
2022-10-15T18:24:36.345Z,19.82
2022-10-15T18:29:40.076Z,19.87
2022-10-15T18:34:42.859Z,19.82
2022-10-15T18:39:45.008Z,19.82
2022-10-15T18:44:47.202Z,19.74
2022-10-15T18:49:49.124Z,19.59
2022-10-15T18:54:51.103Z,19.55
2022-10-15T19:05:00.361Z,19.52
2022-10-15T19:10:02.793Z,19.50
2022-10-15T19:15:05.150Z,19.38
2022-10-15T19:20:07.458Z,19.29
2022-10-15T19:25:09.666Z,19.30
2022-10-15T19:30:12.107Z,19.32
2022-10-15T19:35:14.766Z,19.33
2022-10-15T19:40:16.720Z,19.37
2022-10-15T19:45:19.031Z,19.41
2022-10-15T19:50:20.896Z,19.40
2022-10-15T19:55:25.675Z,19.37
2022-10-15T20:00:29.735Z,19.41
2022-10-15T20:05:31.580Z,19.38
2022-10-15T20:10:33.558Z,19.40
2022-10-15T20:15:35.397Z,19.43
2022-10-15T20:20:43.038Z,19.51
2022-10-15T20:25:46.069Z,19.58
2022-10-15T20:30:49.840Z,19.59
2022-10-15T20:35:51.750Z,19.62
2022-10-15T20:40:56.760Z,19.71
2022-10-15T20:45:58.633Z,19.70
2022-10-15T20:51:01.530Z,19.73
2022-10-15T20:56:06.146Z,19.70
2022-10-15T21:01:08.148Z,19.70
2022-10-15T21:06:09.999Z,19.67
2022-10-15T21:11:11.786Z,19.65
2022-10-15T21:16:13.678Z,19.61
2022-10-15T21:21:15.720Z,19.58
2022-10-15T21:26:18.574Z,19.57
2022-10-15T21:31:20.401Z,19.58
2022-10-15T21:36:26.515Z,19.59
2022-10-15T21:41:30.758Z,19.57
2022-10-15T21:46:33.078Z,19.59
2022-10-15T21:51:36.026Z,19.57
2022-10-15T21:56:38.229Z,19.60
2022-10-15T22:01:42.117Z,19.60
2022-10-15T22:06:44.208Z,19.61
2022-10-15T22:11:46.516Z,19.63
2022-10-15T22:16:48.364Z,19.64
2022-10-15T22:21:50.178Z,19.68
2022-10-15T22:26:52.851Z,19.65
2022-10-15T22:31:55.108Z,19.65
2022-10-15T22:36:57.009Z,19.68
2022-10-15T22:41:58.877Z,19.67
2022-10-15T22:47:00.692Z,19.70
2022-10-15T22:52:02.895Z,19.72
2022-10-15T22:57:04.722Z,19.72
2022-10-15T23:02:06.558Z,19.67
2022-10-15T23:07:08.352Z,19.59
2022-10-15T23:12:10.178Z,19.50
2022-10-15T23:17:11.989Z,19.37
2022-10-15T23:22:13.834Z,19.19
2022-10-15T23:27:16.224Z,19.12
2022-10-15T23:32:18.043Z,19.03
2022-10-15T23:37:19.868Z,19.16
2022-10-15T23:42:21.747Z,19.17
2022-10-15T23:47:23.895Z,19.15
2022-10-15T23:52:25.960Z,19.07
2022-10-15T23:57:28.241Z,19.01
